Time;durP1;ratioP1;P1;durP2;ratioP2;P2;SDS_P1;SDS_P2;PMS_P1;PMS_P2;Temp;Humidity;BMP_temperature;BMP_pressure;BME280_temperature;BME280_humidity;BME280_pressure;Samples;Min_cycle;Max_cycle;Signal;HPM_P1;HPM_P2
2022/06/01 00:01:47;;;;;;;5.97;5.47;;;;;;;13.93;62.39;100914.53;5039540;28;20405;-64
2022/06/01 00:04:12;;;;;;;6.00;5.40;;;;;;;14.09;61.77;100913.63;5037952;28;20415;-64
2022/06/01 00:06:37;;;;;;;6.90;6.17;;;;;;;14.09;62.27;100916.25;5039131;28;20185;-65
2022/06/01 00:09:03;;;;;;;4.90;4.50;;;;;;;13.88;63.10;100918.91;5039400;28;20170;-64
2022/06/01 00:11:29;;;;;;;4.63;4.27;;;;;;;14.20;62.24;100926.72;5038949;28;20177;-65
2022/06/01 00:13:54;;;;;;;6.80;6.20;;;;;;;13.85;63.68;100925.00;5038812;28;20679;-65
2022/06/01 00:16:19;;;;;;;5.40;4.90;;;;;;;14.11;62.48;100930.25;5038269;28;20264;-64
2022/06/01 00:18:45;;;;;;;5.30;4.90;;;;;;;14.47;61.45;100920.50;5038698;28;20211;-64
2022/06/01 00:21:10;;;;;;;6.23;5.73;;;;;;;14.36;62.16;100924.91;5038880;28;20261;-65
2022/06/01 00:23:36;;;;;;;6.10;5.63;;;;;;;14.45;61.85;100921.38;5038566;28;20216;-65
2022/06/01 00:26:02;;;;;;;5.40;4.90;;;;;;;14.33;62.21;100924.94;5038726;28;20500;-64
2022/06/01 00:28:27;;;;;;;6.10;5.60;;;;;;;14.44;61.90;100920.53;5039229;28;20162;-65
2022/06/01 00:30:53;;;;;;;6.23;5.73;;;;;;;14.28;62.64;100918.84;5038712;28;20555;-64
2022/06/01 00:33:18;;;;;;;5.70;5.30;;;;;;;14.27;63.01;100919.69;5038425;28;20170;-65
2022/06/01 00:35:43;;;;;;;6.23;5.73;;;;;;;14.20;63.32;100924.09;5038779;28;20236;-65
2022/06/01 00:38:09;;;;;;;6.50;5.90;;;;;;;13.85;64.82;100913.66;5038484;28;20228;-65
2022/06/01 00:40:34;;;;;;;6.53;5.90;;;;;;;14.05;64.61;100916.25;5038375;28;20182;-64
2022/06/01 00:43:01;;;;;;;6.87;6.17;;;;;;;13.96;64.70;100907.53;5038678;28;20178;-64
2022/06/01 00:45:29;;;;;;;6.90;6.40;;;;;;;14.31;63.90;100903.06;5038483;28;20363;-64
2022/06/01 00:47:55;;;;;;;6.10;5.60;;;;;;;14.25;64.12;100903.97;5037642;28;20478;-65
2022/06/01 00:50:26;;;;;;;6.90;6.30;;;;;;;13.92;65.53;100902.28;5038771;28;20478;-64
2022/06/01 00:52:57;;;;;;;6.00;5.50;;;;;;;13.99;64.78;100898.81;5038224;28;20239;-65
2022/06/01 00:55:28;;;;;;;6.87;6.27;;;;;;;13.65;65.84;100898.81;5038075;28;20424;-63
2022/06/01 00:57:59;;;;;;;6.03;5.53;;;;;;;13.62;65.81;100883.97;5038086;28;20546;-65
2022/06/01 01:00:28;;;;;;;6.70;6.00;;;;;;;13.33;66.62;100902.28;5038139;28;20400;-65
2022/06/01 01:02:55;;;;;;;6.47;5.87;;;;;;;13.17;67.46;100900.53;5038001;28;20425;-65
2022/06/01 01:05:21;;;;;;;5.40;5.00;;;;;;;13.26;67.10;100895.28;5037287;28;20437;-65
2022/06/01 01:07:47;;;;;;;5.57;5.17;;;;;;;13.25;67.13;100889.19;5038819;28;20496;-64
2022/06/01 01:10:15;;;;;;;8.60;6.00;;;;;;;13.40;66.81;100892.72;5038166;28;20395;-65
2022/06/01 01:12:59;;;;;;;6.87;6.20;;;;;;;13.53;66.38;100893.59;5037119;28;20486;-65
2022/06/01 01:15:32;;;;;;;8.60;7.90;;;;;;;13.57;66.04;100885.75;5037135;28;20421;-64
2022/06/01 01:17:59;;;;;;;6.00;5.50;;;;;;;13.23;66.54;100879.59;5037028;28;20458;-63
2022/06/01 01:20:25;;;;;;;5.70;5.27;;;;;;;13.51;65.87;100888.34;5037383;28;20417;-65
2022/06/01 01:23:13;;;;;;;6.60;6.00;;;;;;;13.21;66.26;100883.97;5037943;28;20451;-64
2022/06/01 01:25:39;;;;;;;6.63;6.03;;;;;;;13.35;66.46;100881.34;5037266;28;20423;-65
2022/06/01 01:28:06;;;;;;;5.43;5.03;;;;;;;13.39;65.94;100876.13;5037891;28;20430;-65
2022/06/01 01:30:40;;;;;;;6.53;6.03;;;;;;;13.18;66.53;100882.22;5037768;28;20184;-65
2022/06/01 01:33:18;;;;;;;5.77;5.27;;;;;;;13.00;66.65;100882.16;5037006;28;20640;-64
2022/06/01 01:35:51;;;;;;;5.90;5.40;;;;;;;13.15;67.06;100871.72;5037698;28;20405;-65
2022/06/01 01:38:32;;;;;;;6.70;6.10;;;;;;;13.10;67.24;100878.72;5037056;28;20438;-65
2022/06/01 01:41:06;;;;;;;8.63;7.83;;;;;;;13.18;66.48;100876.97;5037719;28;20833;-64
2022/06/01 01:43:32;;;;;;;7.30;6.60;;;;;;;12.90;67.20;100879.53;5037705;28;20861;-64
2022/06/01 01:45:57;;;;;;;7.37;6.67;;;;;;;13.14;66.50;100872.59;5037730;28;20417;-65
2022/06/01 01:48:23;;;;;;;5.87;5.47;;;;;;;13.19;66.37;100872.59;5037849;28;20596;-64
2022/06/01 01:50:49;;;;;;;11.43;10.03;;;;;;;13.32;66.55;100863.88;5038202;28;20198;-64
2022/06/01 01:53:14;;;;;;;6.07;5.57;;;;;;;13.08;67.20;100864.72;5037618;28;20182;-64
2022/06/01 01:55:55;;;;;;;5.47;5.07;;;;;;;13.21;66.89;100870.88;5037013;28;20420;-65
2022/06/01 01:58:34;;;;;;;7.03;6.40;;;;;;;13.07;67.22;100863.88;5036776;28;20209;-65
2022/06/01 02:01:10;;;;;;;6.97;6.40;;;;;;;13.01;67.28;100863.00;5036828;28;20720;-65
2022/06/01 02:03:53;;;;;;;11.77;8.00;;;;;;;13.21;66.91;100873.50;5036760;28;20458;-65
2022/06/01 02:06:38;;;;;;;6.97;6.37;;;;;;;13.01;67.22;100868.22;5037154;28;20424;-64
2022/06/01 02:09:08;;;;;;;5.97;5.40;;;;;;;13.02;67.39;100865.59;5037495;28;20824;-65
2022/06/01 02:14:38;;;;;;;6.27;5.60;;;;;;;13.14;67.29;100864.75;5037515;28;20452;-64
2022/06/01 02:17:14;;;;;;;6.57;5.97;;;;;;;13.32;67.15;100864.75;5036583;28;20787;-65
2022/06/01 02:19:42;;;;;;;8.47;7.13;;;;;;;13.20;67.73;100866.50;5037410;28;20412;-64
2022/06/01 02:22:10;;;;;;;6.50;5.90;;;;;;;13.02;67.59;100864.75;5037259;28;20519;-65
2022/06/01 02:24:36;;;;;;;6.20;5.70;;;;;;;12.93;68.15;100865.59;5036667;28;20438;-63
2022/06/01 02:27:02;;;;;;;6.70;6.20;;;;;;;12.87;68.42;100855.13;5037937;28;20878;-64
2022/06/01 02:29:39;;;;;;;6.77;6.17;;;;;;;13.01;68.45;100865.59;5041663;28;20383;-64
2022/06/01 02:32:05;;;;;;;6.40;5.90;;;;;;;13.22;67.94;100857.78;5040808;28;20400;-64
2022/06/01 02:34:31;;;;;;;6.77;6.17;;;;;;;13.22;67.97;100857.78;5040051;28;20795;-65
2022/06/01 02:36:58;;;;;;;6.27;5.70;;;;;;;13.22;67.96;100862.13;5039943;28;20413;-65
2022/06/01 02:39:24;;;;;;;6.53;6.03;;;;;;;13.61;66.96;100861.28;5040045;28;20174;-65
2022/06/01 02:44:33;;;;;;;6.43;5.93;;;;;;;13.31;67.17;100867.38;5040701;28;20593;-65
2022/06/01 02:46:59;;;;;;;7.03;6.43;;;;;;;13.12;67.90;100867.38;5040707;28;20421;-65
2022/06/01 02:49:24;;;;;;;7.03;6.43;;;;;;;13.08;68.11;100868.25;5040514;28;20224;-65
2022/06/01 02:51:49;;;;;;;6.60;6.00;;;;;;;13.00;68.57;100864.72;5040548;28;20178;-65
2022/06/01 02:54:15;;;;;;;6.53;6.03;;;;;;;12.84;68.75;100855.09;5040715;28;20414;-65
2022/06/01 02:56:40;;;;;;;8.23;6.43;;;;;;;12.93;68.88;100860.34;5040495;28;20567;-64
2022/06/01 02:59:06;;;;;;;7.50;6.90;;;;;;;12.91;68.52;100860.34;5040366;28;20198;-65
2022/06/01 03:01:33;;;;;;;6.63;6.13;;;;;;;13.05;68.12;100864.75;5040592;28;20202;-64
2022/06/01 03:03:58;;;;;;;6.67;6.00;;;;;;;12.98;68.63;100864.72;5040057;28;20754;-64
2022/06/01 03:06:24;;;;;;;6.40;5.90;;;;;;;12.93;68.28;100865.59;5040283;28;20416;-64
2022/06/01 03:08:49;;;;;;;7.07;6.37;;;;;;;13.16;68.01;100859.50;5040504;28;20180;-64
2022/06/01 03:11:15;;;;;;;6.70;6.20;;;;;;;12.76;68.95;100857.72;5040208;28;20185;-64
2022/06/01 03:13:40;;;;;;;6.20;5.70;;;;;;;12.71;68.14;100855.06;5040188;28;20229;-63
2022/06/01 03:16:05;;;;;;;6.70;6.03;;;;;;;12.50;69.01;100849.78;5040250;28;20488;-64
2022/06/01 03:18:31;;;;;;;7.23;6.70;;;;;;;12.82;68.72;100849.88;5039950;28;20210;-64
2022/06/01 03:20:57;;;;;;;6.40;5.80;;;;;;;12.88;68.95;100846.38;5040005;28;20515;-65
2022/06/01 03:23:24;;;;;;;6.70;6.20;;;;;;;12.76;69.22;100849.88;5039814;28;20443;-64
2022/06/01 03:25:49;;;;;;;6.20;5.70;;;;;;;12.99;68.48;100844.69;5040003;28;20396;-64
2022/06/01 03:28:15;;;;;;;8.40;6.47;;;;;;;12.91;68.75;100844.66;5040210;28;20800;-65
2022/06/01 03:30:40;;;;;;;6.80;6.30;;;;;;;13.03;68.13;100837.69;5039772;28;20178;-65
2022/06/01 03:33:06;;;;;;;7.23;6.53;;;;;;;13.14;67.61;100849.06;5039676;28;20543;-64
2022/06/01 03:35:32;;;;;;;6.83;6.33;;;;;;;12.95;68.08;100842.94;5040372;28;20206;-64
2022/06/01 03:37:58;;;;;;;6.53;6.03;;;;;;;12.89;68.32;100838.53;5039489;28;20210;-64
2022/06/01 03:40:25;;;;;;;6.90;6.20;;;;;;;12.83;68.10;100845.50;5039584;28;20428;-64
2022/06/01 03:42:50;;;;;;;6.77;6.17;;;;;;;13.07;67.89;100842.94;5039665;28;20174;-65
2022/06/01 03:47:59;;;;;;;6.67;6.00;;;;;;;12.57;68.49;100851.53;5039388;28;20189;-64
2022/06/01 03:50:26;;;;;;;6.47;5.97;;;;;;;13.23;67.28;100848.16;5039345;28;20418;-64
2022/06/01 03:52:52;;;;;;;5.93;5.53;;;;;;;12.46;68.99;100852.38;5039368;28;20212;-64
2022/06/01 03:55:17;;;;;;;6.10;5.60;;;;;;;12.16;70.30;100847.88;5039728;28;20383;-65
2022/06/01 03:57:43;;;;;;;6.30;5.80;;;;;;;12.00;70.74;100846.97;5039290;28;20507;-65
2022/06/01 04:00:12;;;;;;;6.43;5.90;;;;;;;12.44;69.36;100845.41;5039320;28;20492;-64
2022/06/01 04:02:39;;;;;;;5.80;5.30;;;;;;;14.16;64.58;100838.44;5038960;28;20515;-64
2022/06/01 04:05:05;;;;;;;5.30;4.87;;;;;;;13.19;64.84;100833.34;5039462;28;20463;-64
2022/06/01 04:07:30;;;;;;;5.10;4.70;;;;;;;13.55;63.75;100839.47;5039585;28;20417;-65
2022/06/01 04:09:55;;;;;;;5.13;4.73;;;;;;;13.10;65.96;100844.69;5039895;28;20189;-65
2022/06/01 04:12:22;;;;;;;5.27;4.87;;;;;;;13.25;65.53;100841.19;5038932;28;20174;-65
2022/06/01 04:14:47;;;;;;;5.07;4.57;;;;;;;13.55;65.04;100842.94;5038237;28;20254;-65
2022/06/01 04:17:12;;;;;;;5.40;4.90;;;;;;;13.68;64.31;100837.69;5038922;28;20896;-65
2022/06/01 04:19:39;;;;;;;5.30;4.80;;;;;;;13.29;65.41;100840.31;5038778;28;20468;-64
2022/06/01 04:22:04;;;;;;;5.20;4.80;;;;;;;13.16;64.99;100835.97;5038942;28;20428;-65
2022/06/01 04:24:32;;;;;;;5.33;4.93;;;;;;;13.60;64.39;100841.22;5038632;28;20202;-64
2022/06/01 04:26:58;;;;;;;5.40;4.90;;;;;;;12.82;66.80;100841.16;5038706;28;20180;-65
2022/06/01 04:29:23;;;;;;;5.60;5.10;;;;;;;13.26;65.63;100845.53;5038990;28;20474;-64
2022/06/01 04:31:49;;;;;;;5.43;4.93;;;;;;;13.48;65.24;100846.47;5038481;28;20278;-64
2022/06/01 04:34:14;;;;;;;5.77;5.27;;;;;;;14.02;64.27;100835.88;5037553;28;20182;-65
2022/06/01 04:36:39;;;;;;;5.60;5.10;;;;;;;14.04;63.96;100843.72;5039348;28;20201;-65
2022/06/01 04:39:06;;;;;;;5.30;4.80;;;;;;;14.48;62.19;100834.81;5037779;28;20206;-64
2022/06/01 04:41:32;;;;;;;5.27;4.87;;;;;;;13.56;65.12;100849.09;5038503;28;20314;-64
2022/06/01 04:43:58;;;;;;;5.90;5.40;;;;;;;13.77;65.18;100854.28;5038636;28;20416;-64
2022/06/01 04:46:23;;;;;;;6.57;5.60;;;;;;;14.34;62.99;100853.22;5037526;28;20790;-65
2022/06/01 04:48:49;;;;;;;6.00;5.40;;;;;;;14.15;63.08;100857.66;5038125;28;20185;-65
2022/06/01 04:51:15;;;;;;;6.00;5.50;;;;;;;13.38;65.45;100869.16;5037461;28;20178;-65
2022/06/01 04:53:44;;;;;;;5.53;5.07;;;;;;;13.30;65.97;100861.28;5038165;28;20178;-65
2022/06/01 04:56:13;;;;;;;5.63;5.17;;;;;;;13.39;66.26;100864.78;5038142;28;20394;-65
2022/06/01 04:58:39;;;;;;;5.03;4.60;;;;;;;12.53;68.13;100866.34;5038614;28;20444;-64
2022/06/01 05:01:05;;;;;;;5.50;5.10;;;;;;;13.81;66.27;100869.13;5038008;28;20517;-65
2022/06/01 05:03:30;;;;;;;5.77;5.30;;;;;;;14.17;64.18;100868.16;5037829;28;20457;-65
2022/06/01 05:05:56;;;;;;;6.03;5.53;;;;;;;14.35;63.34;100867.22;5038907;28;20785;-64
2022/06/01 05:08:21;;;;;;;5.30;4.80;;;;;;;14.26;63.12;100876.00;5038001;28;20166;-65
2022/06/01 05:10:46;;;;;;;5.10;4.70;;;;;;;14.38;62.83;100880.31;5037985;28;20216;-64
2022/06/01 05:13:12;;;;;;;5.50;5.10;;;;;;;14.09;64.48;100895.28;5038350;28;20166;-64
2022/06/01 05:15:46;;;;;;;5.40;5.00;;;;;;;14.18;63.99;100898.75;5037018;28;20450;-64
2022/06/01 05:18:12;;;;;;;5.73;5.33;;;;;;;14.31;63.15;100900.47;5037875;28;20476;-64
2022/06/01 05:20:38;;;;;;;6.50;5.87;;;;;;;14.21;63.51;100902.25;5037840;28;20428;-64
2022/06/01 05:23:04;;;;;;;5.40;4.90;;;;;;;14.13;64.00;100901.38;5038187;28;20372;-64
2022/06/01 05:25:29;;;;;;;6.00;5.50;;;;;;;13.95;66.02;100907.53;5038145;28;20253;-64
2022/06/01 05:27:54;;;;;;;6.10;5.20;;;;;;;14.12;64.60;100900.50;5037710;28;20220;-64
2022/06/01 05:30:19;;;;;;;5.93;5.33;;;;;;;14.17;65.49;100908.38;5037088;28;20601;-64
2022/06/01 05:32:45;;;;;;;7.00;5.53;;;;;;;13.82;66.13;100902.31;5038184;28;20171;-65
2022/06/01 05:35:10;;;;;;;6.00;5.43;;;;;;;14.05;66.28;100904.03;5037795;28;20230;-65
2022/06/01 05:37:35;;;;;;;10.03;6.90;;;;;;;13.75;68.83;100900.56;5037694;28;20194;-64
2022/06/01 05:40:01;;;;;;;7.20;6.60;;;;;;;13.91;68.80;100908.41;5038372;28;20419;-64
2022/06/01 05:42:26;;;;;;;9.10;8.30;;;;;;;13.23;70.13;100926.72;5037571;28;20216;-65
2022/06/01 05:44:52;;;;;;;9.23;8.33;;;;;;;13.37;71.06;100919.78;5037765;28;20528;-65
2022/06/01 05:47:18;;;;;;;9.53;8.53;;;;;;;13.45;70.94;100925.03;5038115;28;20254;-65
2022/06/01 05:49:43;;;;;;;12.03;9.97;;;;;;;12.95;71.10;100937.13;5037675;28;20483;-65
2022/06/01 05:52:08;;;;;;;11.03;10.13;;;;;;;13.06;71.66;100939.78;5037490;28;20221;-64
2022/06/01 05:54:34;;;;;;;11.47;10.37;;;;;;;12.79;72.23;100944.91;5038022;28;20576;-64
2022/06/01 05:56:59;;;;;;;10.63;9.80;;;;;;;12.58;72.12;100944.81;5037337;28;20546;-65
2022/06/01 05:59:24;;;;;;;11.40;10.40;;;;;;;12.43;72.94;100948.22;5037384;28;20212;-65
2022/06/01 06:01:50;;;;;;;12.47;11.37;;;;;;;12.11;74.51;100957.63;5038649;28;20262;-64
2022/06/01 06:04:15;;;;;;;13.53;12.27;;;;;;;12.15;74.09;100955.94;5041106;28;20202;-65
2022/06/01 06:06:40;;;;;;;13.80;12.57;;;;;;;11.89;75.27;100953.97;5041339;28;20502;-64
2022/06/01 06:09:08;;;;;;;15.13;13.83;;;;;;;12.13;76.53;100957.66;5041837;28;20162;-65
2022/06/01 06:11:36;;;;;;;16.03;14.50;;;;;;;11.87;76.97;100958.28;5040357;28;20564;-64
2022/06/01 06:14:02;;;;;;;14.30;12.90;;;;;;;11.85;78.00;100956.53;5041217;28;20787;-65
2022/06/01 06:16:30;;;;;;;13.87;12.70;;;;;;;12.13;76.81;100955.03;5041330;28;20470;-64
2022/06/01 06:18:58;;;;;;;14.47;13.20;;;;;;;12.05;77.57;100952.34;5040185;28;20213;-64
2022/06/01 06:21:28;;;;;;;14.83;13.43;;;;;;;12.06;77.34;100953.25;5041003;28;20803;-65
2022/06/01 06:23:58;;;;;;;15.63;14.30;;;;;;;12.01;77.90;100954.94;5040960;28;20380;-64
2022/06/01 06:26:23;;;;;;;15.73;14.30;;;;;;;12.12;76.88;100959.41;5041108;28;20379;-64
2022/06/01 06:28:48;;;;;;;17.80;16.13;;;;;;;12.38;76.69;100958.69;5041447;28;20416;-65
2022/06/01 06:31:14;;;;;;;18.20;16.30;;;;;;;12.27;76.87;100958.63;5040983;28;20174;-64
2022/06/01 06:33:40;;;;;;;17.70;16.27;;;;;;;11.92;77.98;100963.53;5040864;28;20182;-64
2022/06/01 06:36:07;;;;;;;16.93;15.37;;;;;;;12.01;77.64;100966.25;5040334;28;20205;-65
2022/06/01 06:38:34;;;;;;;16.67;15.07;;;;;;;12.17;77.17;100958.56;5040610;28;20460;-65
2022/06/01 06:41:00;;;;;;;15.47;14.07;;;;;;;11.91;77.69;100959.22;5040618;28;20464;-65
2022/06/01 06:43:27;;;;;;;15.07;13.80;;;;;;;12.26;76.36;100946.41;5040965;28;20405;-64
2022/06/01 06:45:58;;;;;;;15.27;13.87;;;;;;;12.45;76.08;100942.16;5040629;28;20559;-65
2022/06/01 06:48:23;;;;;;;12.80;11.60;;;;;;;12.39;76.05;100941.25;5040505;28;20417;-65
2022/06/01 06:50:49;;;;;;;12.20;11.10;;;;;;;12.48;76.66;100935.19;5041108;28;20402;-64
2022/06/01 06:53:16;;;;;;;17.90;12.87;;;;;;;12.22;76.91;100942.03;5040494;28;20220;-64
2022/06/01 06:55:41;;;;;;;15.27;13.60;;;;;;;13.03;75.01;100931.91;5040507;28;20174;-63
2022/06/01 06:58:08;;;;;;;13.43;12.10;;;;;;;12.73;75.62;100925.69;5040684;28;20908;-65
2022/06/01 07:00:34;;;;;;;13.37;12.13;;;;;;;12.89;75.17;100926.63;5040597;28;20171;-65
2022/06/01 07:02:59;;;;;;;15.93;12.70;;;;;;;13.21;74.63;100918.00;5039491;28;20427;-64
2022/06/01 07:08:08;;;;;;;13.10;11.90;;;;;;;12.58;75.92;100903.88;5039520;28;20519;-65
2022/06/01 07:10:33;;;;;;;14.00;12.60;;;;;;;12.74;76.32;100899.53;5033604;28;20442;-63
2022/06/01 07:12:59;;;;;;;13.37;12.17;;;;;;;12.44;76.23;100893.31;5019909;28;20171;-63
2022/06/01 07:15:24;;;;;;;14.43;13.13;;;;;;;12.91;76.13;100888.28;5033395;28;20197;-63
2022/06/01 07:17:50;;;;;;;14.00;12.73;;;;;;;13.32;74.08;100884.81;5038881;28;20297;-64
2022/06/01 07:20:16;;;;;;;14.10;12.80;;;;;;;13.01;74.75;100882.16;5036632;28;20181;-63
2022/06/01 07:22:41;;;;;;;13.43;12.23;;;;;;;13.54;74.06;100885.72;5035284;28;20675;-64
2022/06/01 07:25:07;;;;;;;13.33;12.13;;;;;;;13.19;73.66;100888.31;5030588;28;20178;-64
2022/06/01 07:27:32;;;;;;;14.60;13.20;;;;;;;13.27;75.52;100895.31;5039904;28;20162;-63
2022/06/01 07:29:57;;;;;;;13.33;12.10;;;;;;;13.59;74.94;100899.69;5028422;28;20178;-64
2022/06/01 07:32:24;;;;;;;15.10;13.70;;;;;;;13.76;74.18;100899.72;5021014;28;20185;-64
2022/06/01 07:34:49;;;;;;;14.57;13.23;;;;;;;13.77;73.78;100896.22;5026140;28;20207;-64
2022/06/01 07:45:26;;;;;;;11.90;10.80;;;;;;;13.96;71.53;100890.94;5019162;28;20429;-64
2022/06/01 07:47:51;;;;;;;10.83;9.93;;;;;;;14.00;69.93;100897.91;5019553;28;20414;-63
2022/06/01 07:50:17;;;;;;;10.40;9.50;;;;;;;13.84;69.92;100906.69;5019364;28;20265;-66
2022/06/01 07:52:42;;;;;;;10.77;9.67;;;;;;;13.98;70.45;100907.53;5019697;28;20191;-64
2022/06/01 07:55:09;;;;;;;10.47;9.47;;;;;;;14.32;68.79;100903.06;5019908;28;20253;-63
2022/06/01 07:57:35;;;;;;;11.83;10.53;;;;;;;14.20;69.15;100908.34;5019624;28;20237;-64
2022/06/01 08:00:00;;;;;;;9.90;9.10;;;;;;;14.65;67.63;100905.59;5019314;28;20421;-64
2022/06/01 08:02:25;;;;;;;10.07;9.17;;;;;;;14.27;68.67;100914.44;5019638;28;20258;-63
2022/06/01 08:04:51;;;;;;;10.03;9.03;;;;;;;14.88;66.65;100908.09;5019400;28;20186;-65
2022/06/01 08:07:16;;;;;;;10.00;9.07;;;;;;;14.93;64.52;100913.34;5019373;28;20163;-63
2022/06/01 08:09:41;;;;;;;10.67;9.70;;;;;;;15.06;63.85;100922.91;5019801;28;20217;-64
2022/06/01 08:14:51;;;;;;;10.57;9.67;;;;;;;15.13;67.75;100932.47;5019268;28;20186;-65
2022/06/01 08:17:16;;;;;;;10.20;9.30;;;;;;;15.11;67.85;100931.63;5018076;28;20713;-64
2022/06/01 08:19:45;;;;;;;12.27;11.07;;;;;;;16.01;64.42;100928.31;5019035;28;20175;-64
2022/06/01 08:22:10;;;;;;;10.37;9.30;;;;;;;15.65;65.50;100932.97;5019374;28;20533;-65
2022/06/01 08:24:36;;;;;;;9.40;8.70;;;;;;;15.65;66.30;100930.34;5018376;28;20414;-64
2022/06/01 08:27:01;;;;;;;9.57;8.67;;;;;;;16.22;65.38;100931.59;5018817;28;20171;-65
2022/06/01 08:29:26;;;;;;;8.77;7.93;;;;;;;16.54;64.21;100936.50;5019530;28;20158;-65
2022/06/01 08:31:52;;;;;;;11.60;8.10;;;;;;;16.78;63.87;100934.47;5019123;28;20195;-65
2022/06/01 08:34:17;;;;;;;8.17;7.57;;;;;;;16.77;62.89;100928.31;5018604;28;20179;-65
2022/06/01 08:36:43;;;;;;;8.70;8.00;;;;;;;16.46;64.26;100935.72;5019381;28;20182;-64
2022/06/01 08:39:08;;;;;;;8.40;7.70;;;;;;;16.71;63.40;100938.94;5018894;28;20226;-64
2022/06/01 08:41:35;;;;;;;8.00;7.20;;;;;;;17.72;60.22;100933.06;5018660;28;20222;-64
2022/06/01 08:44:23;;;;;;;6.40;5.90;;;;;;;19.09;55.43;100926.94;5018216;28;20194;-65
2022/06/01 08:46:49;;;;;;;5.80;5.30;;;;;;;19.72;51.87;100924.53;5017975;28;20488;-64
2022/06/01 08:49:20;;;;;;;5.20;4.80;;;;;;;20.26;49.89;100923.16;5018833;28;20495;-64
2022/06/01 08:51:46;;;;;;;4.93;4.53;;;;;;;21.07;48.77;100923.47;5017879;28;20692;-65
2022/06/01 08:54:11;;;;;;;5.00;4.70;;;;;;;20.42;51.92;100922.69;5018274;28;20442;-64
2022/06/01 08:56:46;;;;;;;4.40;4.10;;;;;;;19.20;49.52;100921.41;5018774;28;20175;-65
2022/06/01 08:59:25;;;;;;;5.10;4.70;;;;;;;17.63;54.33;100931.47;5018346;28;20198;-64
2022/06/01 09:02:05;;;;;;;5.30;4.80;;;;;;;18.85;53.05;100921.25;5017967;28;20549;-65
2022/06/01 09:04:51;;;;;;;5.37;4.97;;;;;;;17.81;53.03;100924.16;5017728;28;20761;-64
2022/06/01 09:07:24;;;;;;;6.47;5.97;;;;;;;18.27;54.26;100928.63;5017692;28;20513;-65
2022/06/01 09:10:00;;;;;;;6.07;5.60;;;;;;;17.62;54.69;100939.44;5017626;28;20843;-65
2022/06/01 09:12:25;;;;;;;6.40;5.80;;;;;;;18.26;50.07;100928.66;5018365;28;20803;-64
2022/06/01 09:14:53;;;;;;;5.43;5.10;;;;;;;16.95;51.49;100934.25;5018068;28;20421;-65
2022/06/01 09:17:19;;;;;;;6.10;5.50;;;;;;;17.15;53.64;100932.22;5017551;28;20265;-64
2022/06/01 09:22:37;;;;;;;5.70;5.30;;;;;;;17.49;55.70;100939.63;5018127;28;20466;-65
2022/06/01 09:25:14;;;;;;;9.60;8.80;;;;;;;18.01;54.94;100942.31;5018177;28;20392;-63
2022/06/01 09:27:45;;;;;;;6.40;5.90;;;;;;;18.10;53.26;100947.38;5017959;28;20758;-64
2022/06/01 09:30:25;;;;;;;6.40;5.80;;;;;;;18.39;51.76;100947.72;5017590;28;20509;-65
2022/06/01 09:33:24;;;;;;;6.07;5.57;;;;;;;17.55;53.97;100946.56;5017922;28;20506;-64
2022/06/01 09:36:22;;;;;;;5.40;4.87;;;;;;;17.56;51.73;100945.63;5024358;28;20514;-64
2022/06/01 09:38:51;;;;;;;6.00;5.50;;;;;;;18.31;50.68;100954.03;5024046;28;20906;-65
2022/06/01 09:41:19;;;;;;;6.90;5.40;;;;;;;19.83;48.34;100951.63;5022004;28;20472;-65
2022/06/01 09:44:03;;;;;;;5.30;4.80;;;;;;;21.26;43.94;100937.03;5021917;28;20827;-64
2022/06/01 09:46:35;;;;;;;4.73;4.40;;;;;;;20.52;43.72;100943.59;5021972;28;20425;-64
2022/06/01 09:49:08;;;;;;;5.00;4.60;;;;;;;20.32;47.32;100945.94;5022033;28;20679;-64
2022/06/01 09:51:37;;;;;;;5.00;4.60;;;;;;;20.13;46.91;100949.09;5021165;28;20862;-65
2022/06/01 09:54:11;;;;;;;4.40;4.10;;;;;;;18.40;49.56;100960.94;5020905;28;20437;-64
2022/06/01 09:56:45;;;;;;;4.20;3.90;;;;;;;19.08;47.21;100948.97;5021546;28;20449;-64
2022/06/01 10:07:43;;;;;;;4.20;3.90;;;;;;;20.36;44.06;100936.97;5020928;28;20417;-64
2022/06/01 10:10:22;;;;;;;4.20;3.90;;;;;;;19.52;44.85;100933.84;5020879;28;20418;-64
2022/06/01 10:12:53;;;;;;;4.10;3.80;;;;;;;20.32;42.54;100936.22;5020842;28;20249;-64
2022/06/01 10:15:30;;;;;;;3.67;3.37;;;;;;;21.04;40.79;100929.75;5021494;28;20418;-65
2022/06/01 10:18:02;;;;;;;3.40;3.10;;;;;;;22.56;35.92;100925.53;5020364;28;20887;-64
2022/06/01 10:20:32;;;;;;;3.50;3.30;;;;;;;23.46;35.49;100922.91;5020629;28;20696;-64
2022/06/01 10:23:14;;;;;;;3.40;3.13;;;;;;;23.30;35.16;100919.13;5020480;28;20428;-64
2022/06/01 10:25:50;;;;;;;3.67;3.47;;;;;;;22.56;37.66;100914.03;5020345;28;20422;-64
2022/06/01 10:28:22;;;;;;;3.87;3.57;;;;;;;23.05;36.14;100922.75;5020731;28;20398;-64
2022/06/01 10:30:57;;;;;;;4.40;4.10;;;;;;;22.50;39.37;100916.00;5020439;28;20453;-64
2022/06/01 10:33:35;;;;;;;5.50;5.10;;;;;;;23.14;40.93;100919.78;5020268;28;20444;-64
2022/06/01 10:36:03;;;;;;;4.50;4.20;;;;;;;23.01;39.74;100914.03;5021094;28;20862;-65
2022/06/01 10:38:38;;;;;;;4.30;4.00;;;;;;;22.58;40.30;100914.84;5020175;28;20527;-65
2022/06/01 10:41:10;;;;;;;4.83;4.33;;;;;;;22.15;42.68;100920.78;5020284;28;20517;-65
2022/06/01 10:43:56;;;;;;;4.80;4.40;;;;;;;21.17;43.65;100911.66;5020124;28;20683;-65
2022/06/01 10:46:44;;;;;;;4.97;4.57;;;;;;;22.33;41.22;100910.41;5020299;28;20475;-65
2022/06/01 10:49:27;;;;;;;4.47;4.17;;;;;;;20.64;43.73;100913.22;5019395;28;20857;-64
2022/06/01 10:52:00;;;;;;;5.00;4.60;;;;;;;19.58;48.02;100916.97;5020756;28;20409;-64
2022/06/01 10:54:35;;;;;;;5.20;4.80;;;;;;;20.49;44.28;100914.53;5019859;28;20442;-65
2022/06/01 10:57:03;;;;;;;5.30;4.80;;;;;;;20.43;45.51;100909.44;5020230;28;20893;-64
2022/06/01 10:59:28;;;;;;;4.70;4.40;;;;;;;21.44;41.63;100904.59;5019461;28;20655;-64
2022/06/01 11:01:57;;;;;;;5.07;4.67;;;;;;;21.53;43.43;100899.00;5020321;28;20425;-64
2022/06/01 11:04:43;;;;;;;5.03;4.63;;;;;;;22.31;41.63;100898.97;5020459;28;20434;-64
2022/06/01 11:07:40;;;;;;;5.17;4.70;;;;;;;21.07;42.22;100903.13;5019632;28;20588;-65
2022/06/01 11:10:24;;;;;;;4.73;4.43;;;;;;;22.23;39.71;100887.75;5023922;28;20422;-65
2022/06/01 11:13:05;;;;;;;4.97;4.57;;;;;;;23.63;38.88;100882.28;5020287;28;20410;-65
2022/06/01 11:16:02;;;;;;;4.73;4.33;;;;;;;22.30;39.65;100884.81;5019658;28;20417;-65
2022/06/01 11:18:42;;;;;;;4.67;4.30;;;;;;;22.21;39.50;100886.03;5020260;28;20489;-65
2022/06/01 11:21:18;;;;;;;4.57;4.17;;;;;;;22.85;40.15;100873.91;5019562;28;20847;-65
2022/06/01 11:24:27;;;;;;;5.40;5.00;;;;;;;22.43;39.24;100885.25;5019864;28;20405;-65
2022/06/01 11:27:11;;;;;;;5.60;5.20;;;;;;;22.30;39.78;100881.28;5038586;28;20439;-64
2022/06/01 11:29:47;;;;;;;6.70;5.97;;;;;;;21.59;40.25;100881.16;5021602;28;20469;-65
2022/06/01 11:32:18;;;;;;;6.30;5.80;;;;;;;21.46;41.63;100892.16;5019334;28;20428;-64
2022/06/01 11:34:50;;;;;;;7.00;6.30;;;;;;;21.82;38.89;100886.53;5019259;28;20425;-64
2022/06/01 11:37:22;;;;;;;6.67;6.07;;;;;;;22.26;39.03;100885.88;5019128;28;20401;-64
2022/06/01 11:39:52;;;;;;;7.00;6.40;;;;;;;22.37;38.68;100878.38;5019077;28;20418;-64
2022/06/01 11:42:26;;;;;;;6.67;6.07;;;;;;;21.79;40.56;100891.09;5019571;28;20680;-65
2022/06/01 11:45:04;;;;;;;8.80;6.30;;;;;;;21.78;39.85;100895.50;5019664;28;20413;-65
2022/06/01 11:47:34;;;;;;;6.37;5.87;;;;;;;21.45;42.53;100893.06;5019554;28;20424;-65
2022/06/01 11:50:32;;;;;;;7.40;6.80;;;;;;;20.95;43.40;100898.22;5018995;28;20480;-64
2022/06/01 11:53:05;;;;;;;7.67;7.07;;;;;;;19.92;44.16;100894.09;5028447;28;20488;-65
2022/06/01 11:55:33;;;;;;;8.70;7.23;;;;;;;19.37;45.99;100896.34;5018882;28;20707;-65
2022/06/01 11:58:09;;;;;;;6.93;6.43;;;;;;;19.91;46.22;100906.44;5019364;28;20689;-64
2022/06/01 12:00:54;;;;;;;6.90;6.40;;;;;;;20.51;44.69;100901.25;5018534;28;20479;-65
2022/06/01 12:03:19;;;;;;;6.40;5.90;;;;;;;20.70;43.68;100901.59;5019278;28;20414;-65
2022/06/01 12:05:56;;;;;;;7.40;6.90;;;;;;;21.34;41.14;100893.44;5019083;28;20480;-64